Time;durP1;ratioP1;P1;durP2;ratioP2;P2;SDS_P1;SDS_P2;PMS_P1;PMS_P2;Temp;Humidity;BMP_temperature;BMP_pressure;BME280_temperature;BME280_humidity;BME280_pressure;Samples;Min_cycle;Max_cycle;Signal;HPM_P1;HPM_P2
2021/07/04 00:01:15;;;;;;;11.85;8.07;;;22.60;81.50;;;;;;5076152;28;20024;-47
2021/07/04 00:03:40;;;;;;;8.30;6.90;;;22.60;81.60;;;;;;5075326;28;20017;-45
2021/07/04 00:06:06;;;;;;;9.32;8.00;;;22.60;81.60;;;;;;5076166;28;20052;-45
2021/07/04 00:08:32;;;;;;;11.48;8.45;;;22.60;81.60;;;;;;5075487;28;20115;-44
2021/07/04 00:11:01;;;;;;;10.30;6.93;;;22.60;81.60;;;;;;5075924;28;20103;-46
2021/07/04 00:13:30;;;;;;;9.73;7.80;;;22.60;81.40;;;;;;5075509;28;20032;-45
2021/07/04 00:15:56;;;;;;;8.63;7.38;;;22.60;81.80;;;;;;5076428;28;20118;-46
2021/07/04 00:18:24;;;;;;;13.00;8.13;;;22.60;81.80;;;;;;5075439;28;20046;-45
2021/07/04 00:20:51;;;;;;;7.43;6.70;;;22.60;81.40;;;;;;5076325;28;20060;-45
2021/07/04 00:23:17;;;;;;;8.68;7.60;;;22.60;81.50;;;;;;5075711;28;20031;-44
2021/07/04 00:25:43;;;;;;;9.27;7.22;;;22.60;81.60;;;;;;5075973;28;20037;-44
2021/07/04 00:28:10;;;;;;;11.57;8.90;;;22.60;81.40;;;;;;5075308;28;20028;-44
2021/07/04 00:30:36;;;;;;;9.27;7.32;;;22.60;81.20;;;;;;5076128;28;20040;-44
2021/07/04 00:33:02;;;;;;;9.27;6.95;;;22.60;81.20;;;;;;5075190;28;20412;-44
2021/07/04 00:35:28;;;;;;;10.23;8.13;;;22.60;81.20;;;;;;5075685;28;20381;-44
2021/07/04 00:37:54;;;;;;;9.02;7.55;;;22.60;81.10;;;;;;5075498;28;20111;-43
2021/07/04 00:40:20;;;;;;;8.77;7.18;;;22.60;80.80;;;;;;5075313;28;20136;-44
2021/07/04 00:42:46;;;;;;;8.70;7.20;;;22.60;80.90;;;;;;5075467;28;20373;-44
2021/07/04 00:45:24;;;;;;;8.70;6.63;;;22.60;81.20;;;;;;5075562;28;20123;-43
2021/07/04 00:47:52;;;;;;;8.43;6.82;;;22.60;80.80;;;;;;5075152;28;20056;-44
2021/07/04 00:50:19;;;;;;;9.68;6.88;;;22.60;80.80;;;;;;5075437;28;20036;-43
2021/07/04 00:52:45;;;;;;;10.93;7.30;;;22.60;80.70;;;;;;5074903;28;20024;-44
2021/07/04 00:55:14;;;;;;;10.40;7.15;;;22.60;80.80;;;;;;5075482;28;20041;-45
2021/07/04 00:57:40;;;;;;;9.35;7.32;;;22.60;80.60;;;;;;5074576;28;20028;-45
2021/07/04 01:00:09;;;;;;;8.93;7.00;;;22.60;80.60;;;;;;5075772;28;20037;-44
2021/07/04 01:02:35;;;;;;;11.95;7.00;;;22.50;80.70;;;;;;5075299;28;20028;-46
2021/07/04 01:05:04;;;;;;;10.43;7.18;;;22.60;80.60;;;;;;5075398;28;20090;-46
2021/07/04 01:07:30;;;;;;;9.40;6.82;;;22.50;80.40;;;;;;5075104;28;20032;-44
2021/07/04 01:09:56;;;;;;;8.93;6.90;;;22.60;80.50;;;;;;5075451;28;20035;-44
2021/07/04 01:12:21;;;;;;;7.60;6.55;;;22.50;80.40;;;;;;5075090;28;20035;-44
2021/07/04 01:14:47;;;;;;;9.98;6.82;;;22.50;80.70;;;;;;5075311;28;20440;-44
2021/07/04 01:17:13;;;;;;;11.15;7.32;;;22.50;80.60;;;;;;5075129;28;20428;-45
2021/07/04 01:19:39;;;;;;;9.73;7.05;;;22.60;80.60;;;;;;5075231;28;20313;-43
2021/07/04 01:22:05;;;;;;;8.85;7.03;;;22.50;80.60;;;;;;5075128;28;20054;-43
2021/07/04 01:24:31;;;;;;;13.35;7.53;;;22.50;80.40;;;;;;5075304;28;20325;-44
2021/07/04 01:26:57;;;;;;;8.18;6.90;;;22.50;80.40;;;;;;5075148;28;20029;-46
2021/07/04 01:29:22;;;;;;;10.30;7.38;;;22.50;80.40;;;;;;5074884;28;20462;-44
2021/07/04 01:31:48;;;;;;;11.85;7.82;;;22.50;80.30;;;;;;5074967;28;20131;-44
2021/07/04 01:34:14;;;;;;;9.50;7.20;;;22.40;80.40;;;;;;5075130;28;20075;-44
2021/07/04 01:36:40;;;;;;;9.15;7.65;;;22.40;80.30;;;;;;5075036;28;20078;-43
2021/07/04 01:39:08;;;;;;;10.48;7.28;;;22.50;80.40;;;;;;5074632;28;20044;-45
2021/07/04 01:41:34;;;;;;;10.40;7.40;;;22.40;80.30;;;;;;5074961;28;20039;-44
2021/07/04 01:44:00;;;;;;;9.95;7.32;;;22.40;80.40;;;;;;5074675;28;20041;-44
2021/07/04 01:46:26;;;;;;;9.60;7.82;;;22.30;80.40;;;;;;5075028;28;20025;-44
2021/07/04 01:48:52;;;;;;;8.73;6.97;;;22.30;80.50;;;;;;5074418;28;20104;-43
2021/07/04 01:51:18;;;;;;;8.95;7.05;;;22.30;80.40;;;;;;5075090;28;20028;-45
2021/07/04 01:53:44;;;;;;;12.70;7.90;;;22.30;80.50;;;;;;5074373;28;20057;-43
2021/07/04 01:56:10;;;;;;;9.68;7.13;;;22.30;80.60;;;;;;5075266;28;20063;-44
2021/07/04 01:58:38;;;;;;;16.15;7.75;;;22.20;80.50;;;;;;5074351;28;20036;-44
2021/07/04 02:01:05;;;;;;;14.85;7.55;;;22.20;80.80;;;;;;5074783;28;20474;-44
2021/07/04 02:03:31;;;;;;;11.90;8.20;;;22.20;81.00;;;;;;5074099;28;20033;-44
2021/07/04 02:05:57;;;;;;;9.18;7.80;;;22.20;81.00;;;;;;5074719;28;20025;-47
2021/07/04 02:08:23;;;;;;;11.43;8.23;;;22.20;81.20;;;;;;5074433;28;20111;-43
2021/07/04 02:10:48;;;;;;;9.63;7.53;;;22.10;81.40;;;;;;5076814;28;20029;-45
2021/07/04 02:13:14;;;;;;;9.18;7.32;;;22.10;81.50;;;;;;5078052;28;20404;-44
2021/07/04 02:15:40;;;;;;;11.30;7.93;;;22.20;81.70;;;;;;5078539;28;20308;-43
2021/07/04 02:18:12;;;;;;;10.75;7.30;;;22.20;81.90;;;;;;5077762;28;20031;-43
2021/07/04 02:20:52;;;;;;;8.80;6.53;;;22.10;82.00;;;;;;5078581;28;20025;-44
2021/07/04 02:23:21;;;;;;;9.43;8.30;;;22.20;82.00;;;;;;5077659;28;20031;-44
2021/07/04 02:25:48;;;;;;;13.43;8.23;;;22.20;82.20;;;;;;5078346;28;20037;-44
2021/07/04 02:28:17;;;;;;;9.70;7.85;;;22.20;81.90;;;;;;5077960;28;20089;-45
2021/07/04 02:30:44;;;;;;;10.07;7.95;;;22.20;82.00;;;;;;5077746;28;20107;-45
2021/07/04 02:33:12;;;;;;;10.52;8.32;;;22.20;81.80;;;;;;5077480;28;20028;-44
2021/07/04 02:35:41;;;;;;;9.85;7.88;;;22.20;81.50;;;;;;5078254;28;20033;-43
2021/07/04 02:38:08;;;;;;;10.88;8.18;;;22.10;81.60;;;;;;5077567;28;20037;-44
2021/07/04 02:40:35;;;;;;;13.23;8.85;;;22.20;81.80;;;;;;5078081;28;20111;-44
2021/07/04 02:43:01;;;;;;;9.45;8.45;;;22.10;81.80;;;;;;5077656;28;20054;-43
2021/07/04 02:45:27;;;;;;;12.40;8.20;;;22.20;82.00;;;;;;5077988;28;20040;-45
2021/07/04 02:47:53;;;;;;;9.98;8.85;;;22.20;82.20;;;;;;5077091;28;20020;-44
2021/07/04 02:50:21;;;;;;;11.15;8.73;;;22.20;82.20;;;;;;5077940;28;20032;-45
2021/07/04 02:52:47;;;;;;;9.85;8.13;;;22.20;82.20;;;;;;5077347;28;20024;-44
2021/07/04 02:55:13;;;;;;;9.77;8.50;;;22.20;82.30;;;;;;5077905;28;20068;-44
2021/07/04 02:57:39;;;;;;;10.55;9.18;;;22.20;82.40;;;;;;5076899;28;20451;-44
2021/07/04 03:00:08;;;;;;;13.38;9.25;;;22.20;82.30;;;;;;5077330;28;20071;-44
2021/07/04 03:02:34;;;;;;;12.50;9.30;;;22.20;82.40;;;;;;5076850;28;20059;-45
2021/07/04 03:05:00;;;;;;;10.38;8.45;;;22.20;82.30;;;;;;5077384;28;20067;-44
2021/07/04 03:07:25;;;;;;;10.45;9.02;;;22.20;82.60;;;;;;5076949;28;20051;-43
2021/07/04 03:09:51;;;;;;;11.15;8.82;;;22.20;82.30;;;;;;5077249;28;20032;-44
2021/07/04 03:12:17;;;;;;;10.90;8.82;;;22.20;82.40;;;;;;5076881;28;20432;-44
2021/07/04 03:14:42;;;;;;;16.02;10.10;;;22.30;82.50;;;;;;5077265;28;20039;-44
2021/07/04 03:17:08;;;;;;;11.35;9.57;;;22.30;82.30;;;;;;5076746;28;20052;-45
2021/07/04 03:19:34;;;;;;;13.65;9.77;;;22.30;82.30;;;;;;5077028;28;20311;-44
2021/07/04 03:22:00;;;;;;;13.32;10.18;;;22.30;82.20;;;;;;5076607;28;20029;-45
2021/07/04 03:24:25;;;;;;;16.27;9.85;;;22.30;82.20;;;;;;5076906;28;20041;-44
2021/07/04 03:26:51;;;;;;;12.95;10.18;;;22.30;82.40;;;;;;5076859;28;20044;-44
2021/07/04 03:29:16;;;;;;;17.77;11.65;;;22.30;82.50;;;;;;5076550;28;20294;-45
2021/07/04 03:31:42;;;;;;;16.08;11.30;;;22.30;82.40;;;;;;5076856;28;20029;-44
2021/07/04 03:34:08;;;;;;;16.70;11.23;;;22.30;82.70;;;;;;5076254;28;20137;-44
2021/07/04 03:36:34;;;;;;;16.75;11.77;;;22.40;82.90;;;;;;5076578;28;20036;-44
2021/07/04 03:38:59;;;;;;;14.00;11.15;;;22.40;83.10;;;;;;5075996;28;20052;-45
2021/07/04 03:41:25;;;;;;;14.30;11.48;;;22.40;83.40;;;;;;5076751;28;20107;-45
2021/07/04 03:43:51;;;;;;;12.05;10.60;;;22.50;83.70;;;;;;5076114;28;20041;-44
2021/07/04 03:46:17;;;;;;;14.45;11.32;;;22.50;84.00;;;;;;5076821;28;20366;-45
2021/07/04 03:48:42;;;;;;;12.27;10.10;;;22.60;84.40;;;;;;5076219;28;20383;-45
2021/07/04 03:51:08;;;;;;;18.50;11.70;;;22.60;84.50;;;;;;5076245;28;20062;-45
2021/07/04 03:53:33;;;;;;;12.50;11.20;;;22.70;84.30;;;;;;5075730;28;20020;-44
2021/07/04 03:55:59;;;;;;;13.10;10.95;;;22.80;84.10;;;;;;5076239;28;20060;-46
2021/07/04 03:58:25;;;;;;;15.48;10.40;;;22.90;83.70;;;;;;5075793;28;20024;-44
2021/07/04 04:00:50;;;;;;;14.77;9.45;;;22.90;83.50;;;;;;5076689;28;20258;-44
2021/07/04 04:03:16;;;;;;;12.52;10.35;;;23.00;83.20;;;;;;5074577;28;20078;-46
2021/07/04 04:05:41;;;;;;;13.45;10.77;;;23.10;83.10;;;;;;5076278;28;20044;-44
2021/07/04 04:08:07;;;;;;;15.82;11.32;;;23.10;83.10;;;;;;5075699;28;20360;-46
2021/07/04 04:10:34;;;;;;;11.63;10.43;;;23.10;83.10;;;;;;5076328;28;20024;-44
2021/07/04 04:13:01;;;;;;;12.60;11.15;;;23.20;82.90;;;;;;5075690;28;20035;-45
2021/07/04 04:15:27;;;;;;;15.45;12.68;;;23.20;82.90;;;;;;5076254;28;20037;-44
2021/07/04 04:17:56;;;;;;;15.95;12.07;;;23.30;83.20;;;;;;5075706;28;20025;-46
2021/07/04 04:20:22;;;;;;;15.52;12.13;;;23.30;83.10;;;;;;5076108;28;20072;-43
2021/07/04 04:22:47;;;;;;;14.30;11.65;;;23.30;83.10;;;;;;5075335;28;20060;-45
2021/07/04 04:25:13;;;;;;;16.58;12.93;;;23.40;83.00;;;;;;5076179;28;20055;-45
2021/07/04 04:27:39;;;;;;;18.40;14.80;;;23.50;83.00;;;;;;5075459;28;20031;-46
2021/07/04 04:30:06;;;;;;;15.02;11.98;;;23.50;82.90;;;;;;5075877;28;20062;-47
2021/07/04 04:32:32;;;;;;;16.42;14.38;;;23.50;83.00;;;;;;5074614;28;20115;-46
2021/07/04 04:34:57;;;;;;;18.63;14.80;;;23.60;82.90;;;;;;5075830;28;20419;-46
2021/07/04 04:37:23;;;;;;;14.88;13.32;;;23.60;82.90;;;;;;5075282;28;20313;-45
2021/07/04 04:39:49;;;;;;;17.48;13.52;;;23.60;82.70;;;;;;5075504;28;20048;-45
2021/07/04 04:42:15;;;;;;;15.20;13.60;;;23.70;82.60;;;;;;5075217;28;20032;-48
2021/07/04 04:44:41;;;;;;;17.10;15.27;;;23.70;82.00;;;;;;5075352;28;20033;-45
2021/07/04 04:47:06;;;;;;;16.15;13.50;;;23.80;81.60;;;;;;5075393;28;20020;-45
2021/07/04 04:49:35;;;;;;;16.38;14.38;;;23.80;81.60;;;;;;5075311;28;20420;-46
2021/07/04 04:52:02;;;;;;;16.75;14.55;;;23.80;81.70;;;;;;5075102;28;20409;-45
2021/07/04 04:54:28;;;;;;;17.42;12.88;;;23.80;82.00;;;;;;5075073;28;20049;-44
2021/07/04 04:56:54;;;;;;;14.02;12.68;;;23.90;82.00;;;;;;5075170;28;20035;-47
2021/07/04 04:59:19;;;;;;;15.73;13.60;;;23.90;81.90;;;;;;5075427;28;20043;-45
2021/07/04 05:01:45;;;;;;;17.02;14.50;;;23.90;81.90;;;;;;5075252;28;20070;-45
2021/07/04 05:04:10;;;;;;;15.93;14.23;;;24.00;82.10;;;;;;5074875;28;20054;-46
2021/07/04 05:06:36;;;;;;;17.83;14.07;;;24.10;82.00;;;;;;5075587;28;20028;-45
2021/07/04 05:09:03;;;;;;;17.23;15.43;;;24.10;82.00;;;;;;5075136;28;20028;-47
2021/07/04 05:11:29;;;;;;;15.95;14.05;;;24.10;81.50;;;;;;5075408;28;20025;-45
2021/07/04 05:13:55;;;;;;;16.48;14.25;;;24.10;81.30;;;;;;5074804;28;20032;-45
2021/07/04 05:16:20;;;;;;;17.33;14.30;;;24.20;81.30;;;;;;5075359;28;20316;-44
2021/07/04 05:18:46;;;;;;;16.88;14.95;;;24.20;81.20;;;;;;5073739;28;20433;-48
2021/07/04 05:21:12;;;;;;;16.45;14.43;;;24.30;81.30;;;;;;5074150;28;20096;-48
2021/07/04 05:23:37;;;;;;;17.08;13.60;;;24.30;81.20;;;;;;5074608;28;20417;-45
2021/07/04 05:26:03;;;;;;;14.82;13.02;;;24.30;81.20;;;;;;5075173;28;20032;-49
2021/07/04 05:28:29;;;;;;;14.27;12.65;;;24.30;81.20;;;;;;5074692;28;20028;-46
2021/07/04 05:30:55;;;;;;;17.60;14.40;;;24.40;80.90;;;;;;5075401;28;20035;-45
2021/07/04 05:33:22;;;;;;;15.13;12.60;;;24.40;80.70;;;;;;5074701;28;20025;-46
2021/07/04 05:35:48;;;;;;;16.35;13.50;;;24.40;80.00;;;;;;5075341;28;20391;-45
2021/07/04 05:38:22;;;;;;;16.33;13.45;;;24.50;80.10;;;;;;5074794;28;20111;-46
2021/07/04 05:40:51;;;;;;;15.55;13.93;;;24.50;80.00;;;;;;5075392;28;20278;-47
2021/07/04 05:43:17;;;;;;;15.83;13.23;;;24.50;79.90;;;;;;5074766;28;20393;-47
2021/07/04 05:45:43;;;;;;;13.10;11.70;;;24.60;80.10;;;;;;5078251;28;20051;-47
2021/07/04 05:48:10;;;;;;;14.95;12.82;;;24.60;79.60;;;;;;5078582;28;20373;-46
2021/07/04 05:50:36;;;;;;;17.20;13.93;;;24.60;79.30;;;;;;5078709;28;20056;-48
2021/07/04 05:53:02;;;;;;;15.27;13.32;;;24.70;79.10;;;;;;5078451;28;20059;-46
2021/07/04 05:55:27;;;;;;;12.45;11.15;;;24.70;78.90;;;;;;5078968;28;20431;-46
2021/07/04 05:57:53;;;;;;;13.68;11.23;;;24.80;78.80;;;;;;5078380;28;20045;-45
2021/07/04 06:00:19;;;;;;;14.02;12.57;;;24.80;78.60;;;;;;5078838;28;20048;-45
2021/07/04 06:02:44;;;;;;;15.10;11.45;;;24.90;78.40;;;;;;5078376;28;20404;-46
2021/07/04 06:05:13;;;;;;;16.17;13.07;;;24.90;78.20;;;;;;5078833;28;20063;-44
2021/07/04 06:07:39;;;;;;;14.52;11.75;;;25.00;77.80;;;;;;5077891;28;20417;-45
2021/07/04 06:10:05;;;;;;;13.98;11.70;;;25.00;77.20;;;;;;5078468;28;20046;-45
2021/07/04 06:12:31;;;;;;;14.13;11.75;;;25.10;77.40;;;;;;5078260;28;20024;-46
2021/07/04 06:14:56;;;;;;;14.27;12.77;;;25.10;77.40;;;;;;5078452;28;20028;-45
2021/07/04 06:17:22;;;;;;;14.18;12.23;;;25.20;77.20;;;;;;5078101;28;20025;-45
2021/07/04 06:19:48;;;;;;;15.65;12.98;;;25.20;76.80;;;;;;5078141;28;20028;-44
2021/07/04 06:22:13;;;;;;;14.57;13.07;;;25.30;77.10;;;;;;5077896;28;20412;-44
2021/07/04 06:24:39;;;;;;;17.20;14.20;;;25.30;77.20;;;;;;5078026;28;20028;-44
2021/07/04 06:27:05;;;;;;;15.93;13.27;;;25.40;76.80;;;;;;5077694;28;20039;-43
2021/07/04 06:29:30;;;;;;;15.05;11.95;;;25.40;76.80;;;;;;5077973;28;20077;-45
2021/07/04 06:31:56;;;;;;;15.98;13.35;;;25.40;76.70;;;;;;5077547;28;20052;-46
2021/07/04 06:34:22;;;;;;;19.25;14.77;;;25.40;76.80;;;;;;5077817;28;20119;-45
2021/07/04 06:36:47;;;;;;;16.05;14.27;;;25.40;77.20;;;;;;5077576;28;20064;-46
2021/07/04 06:39:13;;;;;;;16.90;13.63;;;25.40;77.40;;;;;;5077725;28;20110;-46
2021/07/04 06:41:39;;;;;;;14.93;13.07;;;25.50;77.20;;;;;;5077664;28;20096;-44
2021/07/04 06:44:05;;;;;;;15.70;14.07;;;25.60;77.20;;;;;;5077246;28;20321;-45
2021/07/04 06:46:31;;;;;;;19.48;14.68;;;25.60;76.80;;;;;;5077903;28;20029;-43
2021/07/04 06:48:57;;;;;;;15.25;13.32;;;25.70;77.20;;;;;;5077475;28;20032;-45
2021/07/04 06:51:23;;;;;;;15.30;13.60;;;25.70;76.10;;;;;;5077514;28;20047;-44
2021/07/04 06:53:49;;;;;;;15.18;13.57;;;25.80;76.20;;;;;;5076976;28;20356;-44
2021/07/04 06:56:14;;;;;;;15.30;12.98;;;25.90;76.30;;;;;;5076693;28;20035;-45
2021/07/04 06:58:40;;;;;;;20.48;13.43;;;26.00;77.00;;;;;;5077143;28;20111;-43
2021/07/04 07:01:07;;;;;;;15.70;13.68;;;26.10;76.10;;;;;;5077232;28;20298;-43
2021/07/04 07:03:33;;;;;;;14.63;11.82;;;26.20;75.80;;;;;;5076928;28;20032;-43
2021/07/04 07:05:59;;;;;;;16.02;13.55;;;26.30;75.60;;;;;;5077312;28;20405;-43
2021/07/04 07:08:25;;;;;;;15.05;12.40;;;26.40;75.10;;;;;;5076655;28;20020;-44
2021/07/04 07:10:50;;;;;;;14.68;13.15;;;26.50;74.30;;;;;;5077356;28;20063;-43
2021/07/04 07:13:16;;;;;;;13.50;12.02;;;26.60;73.60;;;;;;5076986;28;20024;-43
2021/07/04 07:15:44;;;;;;;14.00;12.50;;;26.70;73.20;;;;;;5077170;28;20036;-44
2021/07/04 07:18:10;;;;;;;14.30;11.27;;;26.70;72.80;;;;;;5076426;28;20032;-44
2021/07/04 07:20:37;;;;;;;14.98;11.77;;;26.80;73.00;;;;;;5077180;28;20120;-43
2021/07/04 07:23:03;;;;;;;29.90;13.55;;;26.90;72.50;;;;;;5076549;28;20409;-43
2021/07/04 07:25:29;;;;;;;15.50;11.20;;;27.00;72.60;;;;;;5076444;28;20043;-48
2021/07/04 07:27:54;;;;;;;13.13;10.93;;;27.00;73.30;;;;;;5076539;28;20029;-45
2021/07/04 07:30:21;;;;;;;22.67;11.98;;;27.10;72.50;;;;;;5076915;28;20458;-44
2021/07/04 07:32:47;;;;;;;13.68;11.02;;;27.10;72.10;;;;;;5076418;28;20025;-43
2021/07/04 07:35:13;;;;;;;15.60;11.30;;;27.20;71.60;;;;;;5076844;28;20509;-44
2021/07/04 07:37:39;;;;;;;11.80;10.60;;;27.20;71.40;;;;;;5076073;28;20078;-45
2021/07/04 07:40:07;;;;;;;12.27;10.98;;;27.20;70.60;;;;;;5076616;28;20140;-46
2021/07/04 07:42:33;;;;;;;12.98;9.32;;;27.30;70.70;;;;;;5076088;28;20051;-47
2021/07/04 07:45:00;;;;;;;11.60;10.43;;;27.30;70.70;;;;;;5076606;28;20032;-44
2021/07/04 07:47:26;;;;;;;9.48;8.57;;;27.30;70.90;;;;;;5076221;28;20047;-44
2021/07/04 07:49:52;;;;;;;15.85;10.50;;;27.40;69.90;;;;;;5076453;28;20083;-44
2021/07/04 07:52:17;;;;;;;14.32;11.68;;;27.40;69.80;;;;;;5075751;28;20020;-44
2021/07/04 07:54:43;;;;;;;16.70;11.20;;;27.40;69.40;;;;;;5076182;28;20032;-47
2021/07/04 07:57:09;;;;;;;14.65;12.02;;;27.40;69.40;;;;;;5075816;28;20351;-45
2021/07/04 07:59:34;;;;;;;13.13;10.98;;;27.40;69.10;;;;;;5075765;28;20041;-45
2021/07/04 08:02:00;;;;;;;13.35;11.20;;;27.40;69.00;;;;;;5075469;28;20047;-45
2021/07/04 08:04:26;;;;;;;12.07;10.30;;;27.50;69.10;;;;;;5075688;28;20033;-46
2021/07/04 08:06:52;;;;;;;13.57;10.40;;;27.50;69.50;;;;;;5075545;28;20432;-44
2021/07/04 08:09:17;;;;;;;12.05;10.80;;;27.50;69.30;;;;;;5074989;28;20405;-43
2021/07/04 08:11:43;;;;;;;14.55;11.35;;;27.50;69.80;;;;;;5075536;28;20359;-45
2021/07/04 08:14:09;;;;;;;13.85;11.05;;;27.50;69.50;;;;;;5075647;28;20029;-44
2021/07/04 08:16:35;;;;;;;18.30;12.70;;;27.50;69.60;;;;;;5075857;28;20104;-44
2021/07/04 08:19:00;;;;;;;14.82;11.70;;;27.60;69.10;;;;;;5075408;28;20492;-44
2021/07/04 08:21:28;;;;;;;11.73;10.23;;;27.60;69.00;;;;;;5075549;28;20298;-43
2021/07/04 08:23:53;;;;;;;14.52;10.85;;;27.60;69.20;;;;;;5075051;28;20063;-46
2021/07/04 08:26:19;;;;;;;12.32;11.10;;;27.60;68.80;;;;;;5075410;28;20024;-45
2021/07/04 08:28:45;;;;;;;11.77;10.43;;;27.70;69.00;;;;;;5075013;28;20054;-48
2021/07/04 08:31:10;;;;;;;15.32;10.57;;;27.70;68.90;;;;;;5075354;28;20024;-47
2021/07/04 08:33:36;;;;;;;12.77;9.88;;;27.80;68.30;;;;;;5074805;28;20122;-46
2021/07/04 08:36:02;;;;;;;10.18;9.15;;;27.90;68.30;;;;;;5075410;28;20029;-45
2021/07/04 08:38:28;;;;;;;12.23;10.13;;;27.90;68.00;;;;;;5074984;28;20021;-44
2021/07/04 08:40:54;;;;;;;12.50;11.20;;;28.00;67.80;;;;;;5075594;28;20052;-48
2021/07/04 08:43:30;;;;;;;14.10;10.45;;;28.00;67.90;;;;;;5074949;28;20039;-44
2021/07/04 08:45:57;;;;;;;11.05;9.15;;;28.00;68.00;;;;;;5074152;28;20086;-46
2021/07/04 08:48:24;;;;;;;12.57;10.88;;;28.10;67.90;;;;;;5074845;28;20032;-43
2021/07/04 08:50:50;;;;;;;14.32;10.63;;;28.10;67.20;;;;;;5075354;28;20035;-43
2021/07/04 08:53:16;;;;;;;10.60;9.50;;;28.20;67.00;;;;;;5074770;28;20417;-45
2021/07/04 08:55:43;;;;;;;14.02;11.30;;;28.20;66.90;;;;;;5075037;28;20132;-44
2021/07/04 08:58:09;;;;;;;12.05;10.68;;;28.20;66.40;;;;;;5074900;28;20075;-44
2021/07/04 09:00:35;;;;;;;13.07;10.35;;;28.30;66.90;;;;;;5075610;28;20300;-45
2021/07/04 09:03:21;;;;;;;12.35;10.75;;;28.30;66.80;;;;;;5074768;28;20154;-43
2021/07/04 09:05:47;;;;;;;16.48;11.30;;;28.30;66.80;;;;;;5075073;28;20374;-48
2021/07/04 09:08:20;;;;;;;14.27;11.55;;;28.30;66.70;;;;;;5070255;28;20416;-46
2021/07/04 09:11:12;;;;;;;13.13;10.88;;;28.40;66.90;;;;;;5075087;28;20060;-46
2021/07/04 09:13:40;;;;;;;20.15;11.75;;;28.40;66.60;;;;;;5074372;28;20032;-44
2021/07/04 09:16:08;;;;;;;13.02;10.25;;;28.50;66.70;;;;;;5074879;28;20024;-45
2021/07/04 09:18:35;;;;;;;14.27;9.50;;;28.50;65.80;;;;;;5072971;28;20497;-44
2021/07/04 09:21:01;;;;;;;10.90;9.77;;;28.60;66.10;;;;;;5079299;28;20032;-45
2021/07/04 09:23:34;;;;;;;15.23;11.25;;;28.60;65.80;;;;;;5078788;28;20025;-45
2021/07/04 09:26:00;;;;;;;12.68;10.75;;;28.70;65.50;;;;;;5078841;28;20058;-44
2021/07/04 09:28:25;;;;;;;15.25;10.27;;;28.70;65.90;;;;;;5078128;28;20024;-45
2021/07/04 09:30:55;;;;;;;13.82;10.70;;;28.70;65.60;;;;;;5079106;28;20048;-45
2021/07/04 09:33:33;;;;;;;11.80;9.10;;;28.70;64.90;;;;;;5078125;28;20028;-47
2021/07/04 09:36:01;;;;;;;10.70;9.68;;;28.80;65.10;;;;;;5078913;28;20044;-44
2021/07/04 09:38:35;;;;;;;12.50;10.70;;;28.80;65.30;;;;;;5077980;28;20028;-45
2021/07/04 09:41:02;;;;;;;14.20;10.70;;;28.80;65.10;;;;;;5078519;28;20067;-44
2021/07/04 09:43:30;;;;;;;12.63;11.23;;;28.80;65.20;;;;;;5077651;28;20082;-45
2021/07/04 09:45:58;;;;;;;10.98;9.85;;;28.90;65.20;;;;;;5078455;28;20090;-46
2021/07/04 09:48:29;;;;;;;13.85;10.50;;;28.90;65.20;;;;;;5078168;28;20369;-43
2021/07/04 09:51:14;;;;;;;12.27;9.10;;;28.90;64.90;;;;;;5078642;28;20332;-44
2021/07/04 09:53:45;;;;;;;14.65;10.43;;;28.90;64.40;;;;;;5077728;28;20029;-45
2021/07/04 09:56:13;;;;;;;12.80;10.98;;;28.90;64.50;;;;;;5078762;28;20032;-44
2021/07/04 09:58:41;;;;;;;12.93;11.50;;;28.90;64.30;;;;;;5077868;28;20029;-45
2021/07/04 10:01:07;;;;;;;12.80;11.52;;;28.90;65.00;;;;;;5078615;28;20036;-48
2021/07/04 10:03:41;;;;;;;14.20;11.13;;;29.00;64.80;;;;;;5077510;28;20025;-44
2021/07/04 10:06:09;;;;;;;12.48;10.65;;;29.00;64.90;;;;;;5078197;28;20033;-45
2021/07/04 10:08:37;;;;;;;12.98;10.90;;;29.00;64.60;;;;;;5077578;28;20032;-45
2021/07/04 10:11:09;;;;;;;12.00;10.75;;;29.10;65.00;;;;;;5077992;28;20039;-48
2021/07/04 10:13:37;;;;;;;15.07;10.43;;;29.10;64.70;;;;;;5077649;28;20316;-44
2021/07/04 10:16:04;;;;;;;16.33;10.98;;;29.20;64.10;;;;;;5078251;28;20028;-44
2021/07/04 10:18:30;;;;;;;13.10;11.63;;;29.20;64.50;;;;;;5077419;28;20029;-45
2021/07/04 10:20:56;;;;;;;11.68;10.13;;;29.30;63.90;;;;;;5078024;28;20043;-43
2021/07/04 10:23:24;;;;;;;11.48;10.13;;;29.40;63.90;;;;;;5076451;28;20025;-44
2021/07/04 10:25:51;;;;;;;11.48;9.68;;;29.50;63.30;;;;;;5078056;28;20098;-45
2021/07/04 10:28:27;;;;;;;11.90;9.90;;;29.50;63.60;;;;;;5077423;28;20036;-44
2021/07/04 10:30:53;;;;;;;11.77;9.20;;;29.60;62.90;;;;;;5076905;28;20065;-44
2021/07/04 10:33:21;;;;;;;11.57;9.07;;;29.60;63.00;;;;;;5077660;28;20054;-44
2021/07/04 10:36:06;;;;;;;14.70;10.27;;;29.80;62.60;;;;;;5078059;28;20032;-46
2021/07/04 10:38:42;;;;;;;11.70;9.90;;;29.90;62.50;;;;;;5077169;28;20084;-44
2021/07/04 10:41:09;;;;;;;12.05;10.45;;;29.90;62.40;;;;;;5077529;28;20115;-45
2021/07/04 10:43:50;;;;;;;12.95;10.90;;;30.00;62.80;;;;;;5077266;28;20254;-44
2021/07/04 10:46:16;;;;;;;16.15;11.10;;;30.10;62.30;;;;;;5077571;28;20024;-44
2021/07/04 10:48:56;;;;;;;12.35;9.95;;;30.10;61.90;;;;;;5076672;28;20020;-45
2021/07/04 10:51:23;;;;;;;11.15;10.07;;;30.20;61.70;;;;;;5077440;28;20024;-44
2021/07/04 10:53:54;;;;;;;12.35;9.00;;;30.30;61.50;;;;;;5076823;28;20037;-48
2021/07/04 10:56:39;;;;;;;11.50;9.50;;;30.30;60.90;;;;;;5077385;28;20060;-44
2021/07/04 10:59:12;;;;;;;11.77;10.30;;;30.40;60.60;;;;;;5077140;28;20424;-44
2021/07/04 11:01:59;;;;;;;11.60;10.07;;;30.40;60.70;;;;;;5077099;28;20044;-48
2021/07/04 11:04:27;;;;;;;9.40;8.50;;;30.40;60.60;;;;;;5077202;28;20037;-45
2021/07/04 11:07:01;;;;;;;11.02;9.77;;;30.50;60.40;;;;;;5076902;28;20070;-48
2021/07/04 11:09:53;;;;;;;11.10;8.38;;;30.50;60.40;;;;;;5076962;28;20489;-46
2021/07/04 11:12:27;;;;;;;12.52;9.95;;;30.50;60.20;;;;;;5073883;28;20036;-45
2021/07/04 11:15:13;;;;;;;28.13;10.85;;;30.60;60.10;;;;;;5077262;28;20421;-44
2021/07/04 11:20:47;;;;;;;10.65;7.90;;;30.70;60.20;;;;;;5077179;28;20376;-45
2021/07/04 11:23:16;;;;;;;11.07;8.07;;;30.80;59.60;;;;;;5073602;28;20044;-44
2021/07/04 11:25:43;;;;;;;9.60;8.60;;;30.90;59.70;;;;;;5076496;28;20044;-47
2021/07/04 11:28:20;;;;;;;11.05;8.27;;;31.00;59.20;;;;;;5076414;28;20341;-45
2021/07/04 11:30:59;;;;;;;8.80;7.63;;;31.10;59.30;;;;;;5076907;28;20036;-45
2021/07/04 11:33:55;;;;;;;8.20;7.40;;;31.20;58.80;;;;;;5076415;28;20031;-45
2021/07/04 11:36:28;;;;;;;8.10;7.30;;;31.30;58.60;;;;;;5074715;28;20047;-46
2021/07/04 11:39:12;;;;;;;12.75;7.68;;;31.30;57.90;;;;;;5076231;28;20057;-45
2021/07/04 11:41:50;;;;;;;8.85;7.65;;;31.40;57.70;;;;;;5076467;28;20297;-43
2021/07/04 11:44:19;;;;;;;10.82;7.18;;;31.50;57.50;;;;;;5076363;28;20067;-44
2021/07/04 11:46:50;;;;;;;9.60;7.90;;;31.60;57.30;;;;;;5076248;28;20029;-44
2021/07/04 11:49:24;;;;;;;8.68;6.72;;;31.70;57.50;;;;;;5076271;28;20041;-44
2021/07/04 11:52:01;;;;;;;7.93;6.43;;;31.80;56.70;;;;;;5075833;28;20082;-43
2021/07/04 11:54:28;;;;;;;10.95;7.65;;;31.90;56.40;;;;;;5076459;28;20040;-43
2021/07/04 11:56:55;;;;;;;11.23;7.82;;;31.90;56.00;;;;;;5076202;28;20031;-44
2021/07/04 11:59:27;;;;;;;8.82;6.88;;;32.00;55.90;;;;;;5076036;28;20025;-45
2021/07/04 12:01:57;;;;;;;9.68;7.55;;;32.10;55.90;;;;;;5075813;28;20534;-44
2021/07/04 12:04:31;;;;;;;;;;;32.20;55.40;;;;;;5076736;28;20040;-44
2021/07/04 12:07:00;;;;;;;9.30;6.53;;;32.30;55.90;;;;;;5075858;28;19994;-44
2021/07/04 12:09:56;;;;;;;8.00;6.80;;;32.40;55.50;;;;;;5076244;28;20039;-44
2021/07/04 12:12:33;;;;;;;7.88;6.63;;;32.50;55.10;;;;;;5075108;28;20093;-44
2021/07/04 12:15:06;;;;;;;9.40;6.43;;;32.60;54.80;;;;;;5076311;28;20123;-44
2021/07/04 12:17:37;;;;;;;7.20;6.07;;;32.60;54.40;;;;;;5075379;28;20031;-44
2021/07/04 12:20:06;;;;;;;9.43;6.82;;;32.70;53.70;;;;;;5076119;28;20039;-43
2021/07/04 12:22:40;;;;;;;9.43;7.10;;;32.80;52.90;;;;;;5075502;28;20442;-43
2021/07/04 12:25:16;;;;;;;7.40;6.60;;;32.90;53.20;;;;;;5076122;28;20638;-44
2021/07/04 12:27:45;;;;;;;10.45;6.38;;;32.90;53.40;;;;;;5075552;28;20036;-44
2021/07/04 12:30:11;;;;;;;7.63;6.18;;;33.00;53.90;;;;;;5075559;28;20413;-44
2021/07/04 12:32:50;;;;;;;6.93;6.22;;;33.10;53.80;;;;;;5075684;28;20032;-44
2021/07/04 12:35:29;;;;;;;9.07;6.85;;;33.30;53.40;;;;;;5076064;28;20025;-44
2021/07/04 12:37:58;;;;;;;7.63;5.75;;;33.40;52.70;;;;;;5075535;28;20064;-44
2021/07/04 12:40:30;;;;;;;8.25;6.07;;;33.50;52.80;;;;;;5075778;28;20052;-43